sensor_id;sensor_type;location;lat;lon;timestamp;pressure;altitude;pressure_sealevel;temperature;humidity
66627;BME280;53498;50.422;14.912;2022-08-11T00:01:44;99835.19;;;17.58;59.92
66627;BME280;53498;50.422;14.912;2022-08-11T00:04:11;99841.38;;;17.54;59.48
66627;BME280;53498;50.422;14.912;2022-08-11T00:06:38;99836.16;;;17.53;59.37
66627;BME280;53498;50.422;14.912;2022-08-11T00:09:11;99833.53;;;17.51;59.64
66627;BME280;53498;50.422;14.912;2022-08-11T00:11:50;99839.75;;;17.47;59.54
66627;BME280;53498;50.422;14.912;2022-08-11T00:14:21;99843.63;;;17.23;60.00
66627;BME280;53498;50.422;14.912;2022-08-11T00:16:59;99848.00;;;17.24;60.84
66627;BME280;53498;50.422;14.912;2022-08-11T00:19:28;99844.25;;;17.41;60.30
66627;BME280;53498;50.422;14.912;2022-08-11T00:21:54;99850.31;;;17.46;59.97
66627;BME280;53498;50.422;14.912;2022-08-11T00:24:21;99843.44;;;17.35;60.19
66627;BME280;53498;50.422;14.912;2022-08-11T00:26:49;99839.16;;;17.28;61.13
66627;BME280;53498;50.422;14.912;2022-08-11T00:29:15;99835.72;;;17.23;60.76
66627;BME280;53498;50.422;14.912;2022-08-11T00:32:02;99841.03;;;17.20;60.59
66627;BME280;53498;50.422;14.912;2022-08-11T00:34:32;99835.81;;;17.17;61.11
66627;BME280;53498;50.422;14.912;2022-08-11T00:39:26;99836.63;;;17.22;61.29
66627;BME280;53498;50.422;14.912;2022-08-11T00:45:13;99839.41;;;17.11;62.02
66627;BME280;53498;50.422;14.912;2022-08-11T00:47:51;99834.25;;;17.04;62.45
66627;BME280;53498;50.422;14.912;2022-08-11T01:02:11;99844.50;;;16.56;64.47
66627;BME280;53498;50.422;14.912;2022-08-11T01:04:51;99844.59;;;16.47;64.56
66627;BME280;53498;50.422;14.912;2022-08-11T01:19:03;99847.50;;;16.24;65.68
66627;BME280;53498;50.422;14.912;2022-08-11T01:24:50;99851.00;;;16.19;66.01
66627;BME280;53498;50.422;14.912;2022-08-11T01:33:54;99851.91;;;16.18;65.66
66627;BME280;53498;50.422;14.912;2022-08-11T01:42:39;99840.88;;;15.86;66.54
66627;BME280;53498;50.422;14.912;2022-08-11T01:48:25;99840.94;;;15.75;66.35
66627;BME280;53498;50.422;14.912;2022-08-11T01:59:31;99834.19;;;15.45;67.62
66627;BME280;53498;50.422;14.912;2022-08-11T02:02:17;99831.56;;;15.42;67.88
66627;BME280;53498;50.422;14.912;2022-08-11T02:18:36;99829.03;;;15.33;68.70
66627;BME280;53498;50.422;14.912;2022-08-11T02:21:50;99833.41;;;15.26;68.49
66627;BME280;53498;50.422;14.912;2022-08-11T02:24:50;99835.25;;;15.15;69.03
66627;BME280;53498;50.422;14.912;2022-08-11T02:27:24;99831.63;;;15.31;68.08
66627;BME280;53498;50.422;14.912;2022-08-11T02:30:15;99833.41;;;15.26;68.38
66627;BME280;53498;50.422;14.912;2022-08-11T02:32:52;99837.00;;;15.13;68.56
66627;BME280;53498;50.422;14.912;2022-08-11T02:38:36;99832.69;;;15.06;68.64
66627;BME280;53498;50.422;14.912;2022-08-11T02:44:15;99835.22;;;15.18;68.32
66627;BME280;53498;50.422;14.912;2022-08-11T02:47:07;99835.22;;;15.18;68.35
66627;BME280;53498;50.422;14.912;2022-08-11T02:50:05;99825.63;;;15.17;68.52
66627;BME280;53498;50.422;14.912;2022-08-11T02:55:34;99823.94;;;15.08;69.10
66627;BME280;53498;50.422;14.912;2022-08-11T02:58:14;99824.81;;;15.09;69.26
66627;BME280;53498;50.422;14.912;2022-08-11T03:00:49;99820.50;;;15.01;69.06
66627;BME280;53498;50.422;14.912;2022-08-11T03:03:24;99826.50;;;15.13;68.99
66627;BME280;53498;50.422;14.912;2022-08-11T03:06:11;99830.91;;;15.11;69.23
66627;BME280;53498;50.422;14.912;2022-08-11T03:09:07;99829.19;;;15.08;69.07
66627;BME280;53498;50.422;14.912;2022-08-11T03:11:54;99831.84;;;15.02;69.65
66627;BME280;53498;50.422;14.912;2022-08-11T03:17:56;99828.34;;;15.04;69.68
66627;BME280;53498;50.422;14.912;2022-08-11T03:23:36;99827.44;;;15.01;69.84
66627;BME280;53498;50.422;14.912;2022-08-11T03:28:42;99842.34;;;14.91;69.85
66627;BME280;53498;50.422;14.912;2022-08-11T03:31:19;99841.50;;;14.88;70.08
66627;BME280;53498;50.422;14.912;2022-08-11T03:39:34;99845.06;;;14.74;70.63
66627;BME280;53498;50.422;14.912;2022-08-11T03:42:27;99843.38;;;14.60;71.03
66627;BME280;53498;50.422;14.912;2022-08-11T03:47:59;99834.66;;;14.59;70.70
66627;BME280;53498;50.422;14.912;2022-08-11T04:12:47;99818.09;;;14.52;71.12
66627;BME280;53498;50.422;14.912;2022-08-11T04:32:49;99816.28;;;14.68;70.50
66627;BME280;53498;50.422;14.912;2022-08-11T04:47:06;99817.84;;;15.04;68.98
66627;BME280;53498;50.422;14.912;2022-08-11T04:50:00;99821.22;;;15.19;68.59
66627;BME280;53498;50.422;14.912;2022-08-11T04:53:13;99815.06;;;15.27;67.88
66627;BME280;53498;50.422;14.912;2022-08-11T04:56:19;99826.34;;;15.37;68.04
66627;BME280;53498;50.422;14.912;2022-08-11T05:02:29;99821.56;;;17.33;61.53
66627;BME280;53498;50.422;14.912;2022-08-11T05:05:22;99824.88;;;17.99;58.64
66627;BME280;53498;50.422;14.912;2022-08-11T05:16:11;99834.41;;;16.93;62.16
66627;BME280;53498;50.422;14.912;2022-08-11T05:18:57;99832.81;;;16.83;62.90
66627;BME280;53498;50.422;14.912;2022-08-11T05:21:52;99834.50;;;16.85;62.54
66627;BME280;53498;50.422;14.912;2022-08-11T05:24:45;99827.59;;;16.80;61.90
66627;BME280;53498;50.422;14.912;2022-08-11T05:27:48;99826.88;;;16.64;61.78
66627;BME280;53498;50.422;14.912;2022-08-11T05:30:35;99826.75;;;16.75;61.31
66627;BME280;53498;50.422;14.912;2022-08-11T05:33:23;99828.38;;;16.86;61.46
66627;BME280;53498;50.422;14.912;2022-08-11T05:36:17;99815.84;;;17.04;61.97
66627;BME280;53498;50.422;14.912;2022-08-11T05:38:55;99824.78;;;16.94;61.33
66627;BME280;53498;50.422;14.912;2022-08-11T05:41:40;99817.44;;;17.14;61.30
66627;BME280;53498;50.422;14.912;2022-08-11T05:44:26;99819.91;;;17.28;60.44
66627;BME280;53498;50.422;14.912;2022-08-11T05:47:22;99829.38;;;17.40;59.63
66627;BME280;53498;50.422;14.912;2022-08-11T05:50:10;99823.63;;;17.67;58.98
66627;BME280;53498;50.422;14.912;2022-08-11T05:52:55;99824.06;;;17.95;58.12
66627;BME280;53498;50.422;14.912;2022-08-11T05:55:43;99823.41;;;18.31;57.60
66627;BME280;53498;50.422;14.912;2022-08-11T05:58:51;99825.13;;;18.77;55.92
66627;BME280;53498;50.422;14.912;2022-08-11T06:01:35;99827.41;;;18.93;55.58
66627;BME280;53498;50.422;14.912;2022-08-11T06:04:04;99822.66;;;19.09;55.32
66627;BME280;53498;50.422;14.912;2022-08-11T06:06:50;99822.69;;;19.45;54.64
66627;BME280;53498;50.422;14.912;2022-08-11T06:09:23;99822.03;;;19.74;54.39
66627;BME280;53498;50.422;14.912;2022-08-11T06:11:49;99821.91;;;19.79;52.90
66627;BME280;53498;50.422;14.912;2022-08-11T06:14:15;99826.38;;;20.09;53.39
66627;BME280;53498;50.422;14.912;2022-08-11T06:16:47;99832.78;;;19.99;51.48
66627;BME280;53498;50.422;14.912;2022-08-11T06:19:12;99831.22;;;20.59;50.73
66627;BME280;53498;50.422;14.912;2022-08-11T06:21:44;99825.53;;;20.71;50.21
66627;BME280;53498;50.422;14.912;2022-08-11T06:24:12;99835.38;;;20.35;51.17
66627;BME280;53498;50.422;14.912;2022-08-11T06:26:40;99832.97;;;20.88;51.24
66627;BME280;53498;50.422;14.912;2022-08-11T06:29:06;99832.47;;;21.05;50.19
66627;BME280;53498;50.422;14.912;2022-08-11T06:31:33;99833.16;;;21.40;49.59
66627;BME280;53498;50.422;14.912;2022-08-11T06:34:14;99838.69;;;21.60;49.76
66627;BME280;53498;50.422;14.912;2022-08-11T06:42:49;99833.28;;;21.90;48.65
66627;BME280;53498;50.422;14.912;2022-08-11T06:48:02;99824.09;;;21.75;47.20
66627;BME280;53498;50.422;14.912;2022-08-11T06:50:31;99820.63;;;21.73;46.43
66627;BME280;53498;50.422;14.912;2022-08-11T06:53:18;99819.81;;;21.96;45.62
66627;BME280;53498;50.422;14.912;2022-08-11T06:55:45;99819.56;;;22.04;45.27
66627;BME280;53498;50.422;14.912;2022-08-11T06:58:36;99822.19;;;22.30;44.67
66627;BME280;53498;50.422;14.912;2022-08-11T07:01:37;99816.94;;;22.52;44.26
66627;BME280;53498;50.422;14.912;2022-08-11T07:04:12;99818.53;;;22.58;44.45
66627;BME280;53498;50.422;14.912;2022-08-11T07:10:16;99813.91;;;22.86;43.89
66627;BME280;53498;50.422;14.912;2022-08-11T07:13:04;99813.03;;;22.86;43.36
66627;BME280;53498;50.422;14.912;2022-08-11T07:15:53;99809.72;;;23.26;42.75
66627;BME280;53498;50.422;14.912;2022-08-11T07:18:26;99807.19;;;23.66;42.94
66627;BME280;53498;50.422;14.912;2022-08-11T07:24:10;99815.88;;;23.27;42.38
66627;BME280;53498;50.422;14.912;2022-08-11T07:27:05;99811.19;;;23.33;42.20
66627;BME280;53498;50.422;14.912;2022-08-11T07:29:51;99809.38;;;23.12;42.49
66627;BME280;53498;50.422;14.912;2022-08-11T07:32:26;99801.72;;;23.48;42.53
66627;BME280;53498;50.422;14.912;2022-08-11T07:35:01;99807.50;;;22.92;42.85
66627;BME280;53498;50.422;14.912;2022-08-11T07:37:29;99818.16;;;23.14;44.92
66627;BME280;53498;50.422;14.912;2022-08-11T07:39:58;99804.00;;;23.58;43.87
66627;BME280;53498;50.422;14.912;2022-08-11T07:42:28;99812.38;;;23.91;41.79
66627;BME280;53498;50.422;14.912;2022-08-11T07:44:55;99809.31;;;23.58;42.72
66627;BME280;53498;50.422;14.912;2022-08-11T07:47:41;99815.56;;;23.35;44.77
66627;BME280;53498;50.422;14.912;2022-08-11T07:50:26;99814.28;;;23.45;46.20
66627;BME280;53498;50.422;14.912;2022-08-11T07:53:14;99809.19;;;23.61;44.70
66627;BME280;53498;50.422;14.912;2022-08-11T07:55:41;99811.03;;;23.59;43.86
66627;BME280;53498;50.422;14.912;2022-08-11T07:58:09;99811.31;;;23.95;42.62
66627;BME280;53498;50.422;14.912;2022-08-11T08:00:55;99807.19;;;23.88;42.39
66627;BME280;53498;50.422;14.912;2022-08-11T08:03:41;99805.66;;;24.23;41.91
66627;BME280;53498;50.422;14.912;2022-08-11T08:06:31;99798.22;;;23.68;42.12
66627;BME280;53498;50.422;14.912;2022-08-11T08:09:17;99803.78;;;22.98;43.45
66627;BME280;53498;50.422;14.912;2022-08-11T08:12:03;99799.31;;;22.98;44.75
66627;BME280;53498;50.422;14.912;2022-08-11T08:14:53;99792.81;;;23.49;43.75
66627;BME280;53498;50.422;14.912;2022-08-11T08:17:40;99789.69;;;23.18;43.57
66627;BME280;53498;50.422;14.912;2022-08-11T08:20:25;99784.63;;;23.98;42.74
66627;BME280;53498;50.422;14.912;2022-08-11T08:22:57;99783.41;;;23.85;42.58
66627;BME280;53498;50.422;14.912;2022-08-11T08:25:33;99786.59;;;24.13;41.98
66627;BME280;53498;50.422;14.912;2022-08-11T08:28:02;99787.13;;;24.61;40.68
66627;BME280;53498;50.422;14.912;2022-08-11T08:30:29;99785.47;;;23.98;41.42
66627;BME280;53498;50.422;14.912;2022-08-11T08:33:21;99783.34;;;23.86;41.73
66627;BME280;53498;50.422;14.912;2022-08-11T08:35:59;99779.16;;;23.81;41.94
66627;BME280;53498;50.422;14.912;2022-08-11T08:38:47;99780.38;;;24.33;40.27
66627;BME280;53498;50.422;14.912;2022-08-11T08:41:17;99776.22;;;24.67;39.55
66627;BME280;53498;50.422;14.912;2022-08-11T08:43:47;99780.34;;;24.14;40.62
66627;BME280;53498;50.422;14.912;2022-08-11T08:46:18;99778.63;;;24.13;39.91
66627;BME280;53498;50.422;14.912;2022-08-11T08:48:47;99782.69;;;24.41;38.35
66627;BME280;53498;50.422;14.912;2022-08-11T08:51:13;99774.16;;;24.53;37.81
66627;BME280;53498;50.422;14.912;2022-08-11T08:54:08;99779.06;;;24.62;36.78
66627;BME280;53498;50.422;14.912;2022-08-11T08:56:39;99775.41;;;24.46;38.36
66627;BME280;53498;50.422;14.912;2022-08-11T08:59:05;99771.84;;;23.86;38.36
66627;BME280;53498;50.422;14.912;2022-08-11T09:01:45;99779.78;;;23.65;39.23
66627;BME280;53498;50.422;14.912;2022-08-11T09:04:13;99779.78;;;23.65;38.62
66627;BME280;53498;50.422;14.912;2022-08-11T09:06:40;99772.50;;;24.11;37.22
66627;BME280;53498;50.422;14.912;2022-08-11T09:09:09;99768.13;;;24.10;35.25
66627;BME280;53498;50.422;14.912;2022-08-11T09:11:40;99767.41;;;24.46;35.25
66627;BME280;53498;50.422;14.912;2022-08-11T09:14:35;99767.56;;;24.62;34.47
66627;BME280;53498;50.422;14.912;2022-08-11T09:17:21;99772.22;;;24.17;35.65
66627;BME280;53498;50.422;14.912;2022-08-11T09:19:51;99766.50;;;24.27;35.18
66627;BME280;53498;50.422;14.912;2022-08-11T09:22:25;99753.69;;;24.35;34.92
66627;BME280;53498;50.422;14.912;2022-08-11T09:25:09;99762.81;;;24.50;35.29
66627;BME280;53498;50.422;14.912;2022-08-11T09:27:54;99762.34;;;24.40;35.79
66627;BME280;53498;50.422;14.912;2022-08-11T09:30:22;99757.81;;;24.02;34.46
66627;BME280;53498;50.422;14.912;2022-08-11T09:32:53;99758.72;;;24.22;34.75
66627;BME280;53498;50.422;14.912;2022-08-11T09:35:25;99748.25;;;24.38;34.24
66627;BME280;53498;50.422;14.912;2022-08-11T09:37:53;99746.94;;;24.48;34.40
66627;BME280;53498;50.422;14.912;2022-08-11T09:40:40;99750.91;;;24.58;34.58
66627;BME280;53498;50.422;14.912;2022-08-11T09:43:10;99752.47;;;24.62;35.07
66627;BME280;53498;50.422;14.912;2022-08-11T09:45:57;99746.59;;;23.96;35.91
66627;BME280;53498;50.422;14.912;2022-08-11T09:48:25;99749.53;;;23.69;36.51
66627;BME280;53498;50.422;14.912;2022-08-11T09:50:53;99745.94;;;23.70;36.92
66627;BME280;53498;50.422;14.912;2022-08-11T09:53:20;99745.75;;;23.53;36.13
66627;BME280;53498;50.422;14.912;2022-08-11T09:55:48;99738.91;;;23.69;35.76
66627;BME280;53498;50.422;14.912;2022-08-11T09:58:15;99746.88;;;23.90;35.20
66627;BME280;53498;50.422;14.912;2022-08-11T10:00:44;99736.00;;;24.15;33.76
66627;BME280;53498;50.422;14.912;2022-08-11T10:03:12;99736.28;;;24.09;33.27
66627;BME280;53498;50.422;14.912;2022-08-11T10:05:44;99734.88;;;24.00;32.97
66627;BME280;53498;50.422;14.912;2022-08-11T10:08:30;99736.25;;;23.90;32.94
66627;BME280;53498;50.422;14.912;2022-08-11T10:10:58;99737.22;;;23.87;31.85
66627;BME280;53498;50.422;14.912;2022-08-11T10:13:30;99724.09;;;23.84;31.52
66627;BME280;53498;50.422;14.912;2022-08-11T10:16:01;99727.19;;;23.94;30.70
66627;BME280;53498;50.422;14.912;2022-08-11T10:18:40;99715.47;;;24.58;31.17
66627;BME280;53498;50.422;14.912;2022-08-11T10:21:17;99724.16;;;24.61;31.42
66627;BME280;53498;50.422;14.912;2022-08-11T10:23:47;99726.94;;;24.58;32.12
66627;BME280;53498;50.422;14.912;2022-08-11T10:26:35;99728.09;;;24.72;31.50
66627;BME280;53498;50.422;14.912;2022-08-11T10:32:13;99715.75;;;24.88;31.66
66627;BME280;53498;50.422;14.912;2022-08-11T10:35:01;99702.91;;;24.98;31.70
66627;BME280;53498;50.422;14.912;2022-08-11T10:37:29;99719.16;;;25.62;31.10
66627;BME280;53498;50.422;14.912;2022-08-11T10:40:02;99716.88;;;25.72;30.32
66627;BME280;53498;50.422;14.912;2022-08-11T10:42:29;99709.06;;;25.69;30.29
66627;BME280;53498;50.422;14.912;2022-08-11T10:45:14;99715.66;;;25.62;30.99
66627;BME280;53498;50.422;14.912;2022-08-11T10:47:59;99710.63;;;25.56;31.06
66627;BME280;53498;50.422;14.912;2022-08-11T10:50:25;99706.09;;;25.23;31.59
66627;BME280;53498;50.422;14.912;2022-08-11T10:53:11;99706.88;;;24.89;31.65
66627;BME280;53498;50.422;14.912;2022-08-11T10:55:57;99725.53;;;24.70;32.18
66627;BME280;53498;50.422;14.912;2022-08-11T10:58:42;99714.41;;;24.98;31.63
66627;BME280;53498;50.422;14.912;2022-08-11T11:01:21;99713.53;;;25.17;32.02
66627;BME280;53498;50.422;14.912;2022-08-11T11:03:54;99707.75;;;24.70;32.54
66627;BME280;53498;50.422;14.912;2022-08-11T11:09:02;99705.69;;;25.66;32.31
66627;BME280;53498;50.422;14.912;2022-08-11T11:11:36;99709.56;;;25.43;31.88
66627;BME280;53498;50.422;14.912;2022-08-11T11:14:21;99702.72;;;25.37;31.99
66627;BME280;53498;50.422;14.912;2022-08-11T11:17:10;99697.19;;;25.05;32.69
66627;BME280;53498;50.422;14.912;2022-08-11T11:19:41;99696.53;;;25.00;32.42
66627;BME280;53498;50.422;14.912;2022-08-11T11:22:09;99701.94;;;25.18;32.31
66627;BME280;53498;50.422;14.912;2022-08-11T11:25:10;99706.03;;;24.69;32.63
66627;BME280;53498;50.422;14.912;2022-08-11T11:30:28;99690.53;;;24.41;33.98
66627;BME280;53498;50.422;14.912;2022-08-11T11:33:13;99693.78;;;24.65;33.87
66627;BME280;53498;50.422;14.912;2022-08-11T11:38:26;99691.06;;;24.67;33.35
66627;BME280;53498;50.422;14.912;2022-08-11T11:40:53;99685.31;;;24.76;33.69
66627;BME280;53498;50.422;14.912;2022-08-11T11:43:37;99681.44;;;24.64;33.06
66627;BME280;53498;50.422;14.912;2022-08-11T11:46:04;99687.25;;;24.54;32.90
66627;BME280;53498;50.422;14.912;2022-08-11T11:48:31;99677.06;;;24.63;32.81
66627;BME280;53498;50.422;14.912;2022-08-11T11:50:57;99669.66;;;24.70;33.05
66627;BME280;53498;50.422;14.912;2022-08-11T11:53:24;99661.88;;;24.65;32.78
66627;BME280;53498;50.422;14.912;2022-08-11T11:55:50;99665.28;;;24.86;33.54
66627;BME280;53498;50.422;14.912;2022-08-11T11:58:16;99670.78;;;24.64;31.66
66627;BME280;53498;50.422;14.912;2022-08-11T12:01:00;99658.28;;;24.66;32.28
66627;BME280;53498;50.422;14.912;2022-08-11T12:03:46;99660.81;;;24.69;32.34
66627;BME280;53498;50.422;14.912;2022-08-11T12:06:14;99676.50;;;24.93;32.05
66627;BME280;53498;50.422;14.912;2022-08-11T12:08:42;99667.69;;;24.74;32.42
66627;BME280;53498;50.422;14.912;2022-08-11T12:11:10;99668.28;;;25.17;31.48
66627;BME280;53498;50.422;14.912;2022-08-11T12:14:01;99659.50;;;25.14;31.92
66627;BME280;53498;50.422;14.912;2022-08-11T12:16:28;99670.47;;;25.07;32.31
66627;BME280;53498;50.422;14.912;2022-08-11T12:18:57;99660.22;;;24.99;32.93
66627;BME280;53498;50.422;14.912;2022-08-11T12:21:28;99661.38;;;24.76;32.55
66627;BME280;53498;50.422;14.912;2022-08-11T12:23:55;99660.81;;;24.69;33.11
66627;BME280;53498;50.422;14.912;2022-08-11T12:26:41;99653.47;;;24.56;33.25
66627;BME280;53498;50.422;14.912;2022-08-11T12:29:20;99647.50;;;24.69;33.48
66627;BME280;53498;50.422;14.912;2022-08-11T12:31:52;99640.59;;;24.65;32.92
66627;BME280;53498;50.422;14.912;2022-08-11T12:34:19;99642.44;;;24.82;32.75
66627;BME280;53498;50.422;14.912;2022-08-11T12:36:49;99635.63;;;24.77;33.01
66627;BME280;53498;50.422;14.912;2022-08-11T12:39:26;99627.72;;;25.10;33.08
66627;BME280;53498;50.422;14.912;2022-08-11T12:42:13;99631.13;;;25.31;32.04
66627;BME280;53498;50.422;14.912;2022-08-11T12:44:59;99630.09;;;25.16;32.58
66627;BME280;53498;50.422;14.912;2022-08-11T12:47:48;99635.47;;;24.97;32.27
66627;BME280;53498;50.422;14.912;2022-08-11T12:50:34;99625.03;;;24.75;32.66
66627;BME280;53498;50.422;14.912;2022-08-11T12:53:26;99618.56;;;24.81;33.60
66627;BME280;53498;50.422;14.912;2022-08-11T12:56:01;99617.16;;;25.08;33.07
66627;BME280;53498;50.422;14.912;2022-08-11T12:58:55;99612.88;;;25.41;32.79
66627;BME280;53498;50.422;14.912;2022-08-11T13:01:40;99614.25;;;25.48;32.21
66627;BME280;53498;50.422;14.912;2022-08-11T13:04:26;99605.28;;;25.33;32.06
66627;BME280;53498;50.422;14.912;2022-08-11T13:07:12;99600.91;;;25.14;32.27
66627;BME280;53498;50.422;14.912;2022-08-11T13:09:38;99596.13;;;25.38;31.72
66627;BME280;53498;50.422;14.912;2022-08-11T13:12:05;99600.22;;;25.61;31.45
66627;BME280;53498;50.422;14.912;2022-08-11T13:14:53;99588.91;;;25.74;31.63
66627;BME280;53498;50.422;14.912;2022-08-11T13:17:20;99578.84;;;25.79;30.90
66627;BME280;53498;50.422;14.912;2022-08-11T13:19:47;99575.53;;;26.07;30.82
66627;BME280;53498;50.422;14.912;2022-08-11T13:22:18;99579.78;;;25.78;31.09
66627;BME280;53498;50.422;14.912;2022-08-11T13:24:45;99579.25;;;25.89;30.60
66627;BME280;53498;50.422;14.912;2022-08-11T13:27:14;99595.94;;;25.75;30.80
66627;BME280;53498;50.422;14.912;2022-08-11T13:29:42;99587.16;;;25.90;30.55
66627;BME280;53498;50.422;14.912;2022-08-11T13:32:12;99580.28;;;25.86;30.14
66627;BME280;53498;50.422;14.912;2022-08-11T13:34:39;99573.44;;;25.80;30.12
66627;BME280;53498;50.422;14.912;2022-08-11T13:37:09;99575.41;;;25.44;31.18
66627;BME280;53498;50.422;14.912;2022-08-11T13:39:36;99568.94;;;25.65;30.49
66627;BME280;53498;50.422;14.912;2022-08-11T13:42:03;99566.19;;;26.00;30.53
66627;BME280;53498;50.422;14.912;2022-08-11T13:44:32;99560.59;;;26.04;30.09
66627;BME280;53498;50.422;14.912;2022-08-11T13:47:04;99568.44;;;25.74;29.94
66627;BME280;53498;50.422;14.912;2022-08-11T13:49:34;99573.97;;;25.54;29.96
66627;BME280;53498;50.422;14.912;2022-08-11T13:52:02;99566.75;;;25.23;30.72
66627;BME280;53498;50.422;14.912;2022-08-11T13:54:31;99566.81;;;25.04;31.05
66627;BME280;53498;50.422;14.912;2022-08-11T13:57:02;99560.97;;;24.80;31.05
66627;BME280;53498;50.422;14.912;2022-08-11T13:59:29;99564.38;;;24.82;30.98
66627;BME280;53498;50.422;14.912;2022-08-11T14:01:58;99554.91;;;24.93;30.64
66627;BME280;53498;50.422;14.912;2022-08-11T14:04:31;99552.84;;;25.18;30.42
66627;BME280;53498;50.422;14.912;2022-08-11T14:07:03;99546.38;;;25.39;29.22
66627;BME280;53498;50.422;14.912;2022-08-11T14:09:35;99547.63;;;25.65;29.05
66627;BME280;53498;50.422;14.912;2022-08-11T14:12:07;99536.19;;;25.79;28.72
66627;BME280;53498;50.422;14.912;2022-08-11T14:15:12;99537.81;;;25.83;28.64
66627;BME280;53498;50.422;14.912;2022-08-11T14:17:40;99541.59;;;25.61;29.45
66627;BME280;53498;50.422;14.912;2022-08-11T14:20:08;99539.88;;;25.45;29.94
66627;BME280;53498;50.422;14.912;2022-08-11T14:22:38;99547.09;;;25.58;29.60
66627;BME280;53498;50.422;14.912;2022-08-11T14:25:06;99533.53;;;25.79;29.48
66627;BME280;53498;50.422;14.912;2022-08-11T14:27:32;99529.63;;;25.86;29.20
66627;BME280;53498;50.422;14.912;2022-08-11T14:29:59;99536.63;;;25.55;29.41
66627;BME280;53498;50.422;14.912;2022-08-11T14:32:25;99537.56;;;25.54;29.55
66627;BME280;53498;50.422;14.912;2022-08-11T14:34:52;99522.28;;;25.74;29.71
66627;BME280;53498;50.422;14.912;2022-08-11T14:37:20;99538.09;;;25.61;29.82
66627;BME280;53498;50.422;14.912;2022-08-11T14:39:50;99538.44;;;25.37;29.88
66627;BME280;53498;50.422;14.912;2022-08-11T14:42:18;99527.09;;;25.34;29.55
66627;BME280;53498;50.422;14.912;2022-08-11T14:45:08;99521.56;;;25.21;29.63
66627;BME280;53498;50.422;14.912;2022-08-11T14:47:56;99525.72;;;25.27;30.43
66627;BME280;53498;50.422;14.912;2022-08-11T14:50:28;99524.13;;;25.40;30.16
66627;BME280;53498;50.422;14.912;2022-08-11T14:52:57;99529.91;;;25.48;30.46
66627;BME280;53498;50.422;14.912;2022-08-11T14:55:25;99529.66;;;25.20;30.43
66627;BME280;53498;50.422;14.912;2022-08-11T14:58:14;99520.78;;;25.19;31.06
66627;BME280;53498;50.422;14.912;2022-08-11T15:00:42;99527.06;;;25.18;30.67
66627;BME280;53498;50.422;14.912;2022-08-11T15:03:10;99530.44;;;25.04;30.34
66627;BME280;53498;50.422;14.912;2022-08-11T15:05:49;99507.78;;;25.13;30.23
66627;BME280;53498;50.422;14.912;2022-08-11T15:08:17;99506.44;;;25.39;30.03
66627;BME280;53498;50.422;14.912;2022-08-11T15:10:44;99505.75;;;25.51;29.91
66627;BME280;53498;50.422;14.912;2022-08-11T15:13:10;99509.44;;;25.49;29.66
66627;BME280;53498;50.422;14.912;2022-08-11T15:15:37;99493.81;;;25.43;29.72
66627;BME280;53498;50.422;14.912;2022-08-11T15:18:22;99500.34;;;25.53;30.13
66627;BME280;53498;50.422;14.912;2022-08-11T15:20:49;99507.50;;;25.35;30.09
66627;BME280;53498;50.422;14.912;2022-08-11T15:23:34;99502.03;;;25.38;29.71
66627;BME280;53498;50.422;14.912;2022-08-11T15:26:27;99485.31;;;25.52;29.81
66627;BME280;53498;50.422;14.912;2022-08-11T15:29:19;99488.69;;;25.38;29.96
66627;BME280;53498;50.422;14.912;2022-08-11T15:32:06;99492.84;;;25.44;29.56
66627;BME280;53498;50.422;14.912;2022-08-11T15:34:58;99496.50;;;25.25;29.07
66627;BME280;53498;50.422;14.912;2022-08-11T15:37:44;99488.59;;;25.24;28.57
66627;BME280;53498;50.422;14.912;2022-08-11T15:40:20;99497.72;;;25.20;28.44
66627;BME280;53498;50.422;14.912;2022-08-11T15:43:10;99494.94;;;25.21;28.24
66627;BME280;53498;50.422;14.912;2022-08-11T15:45:57;99495.66;;;24.90;28.70
66627;BME280;53498;50.422;14.912;2022-08-11T15:51:28;99500.13;;;24.89;28.79
66627;BME280;53498;50.422;14.912;2022-08-11T15:53:57;99495.78;;;24.88;29.01
66627;BME280;53498;50.422;14.912;2022-08-11T15:56:28;99490.19;;;24.76;29.63
66627;BME280;53498;50.422;14.912;2022-08-11T15:58:57;99491.44;;;24.68;29.62
66627;BME280;53498;50.422;14.912;2022-08-11T16:01:44;99490.66;;;24.84;29.40
66627;BME280;53498;50.422;14.912;2022-08-11T16:04:30;99483.31;;;24.89;28.94
66627;BME280;53498;50.422;14.912;2022-08-11T16:07:00;99481.09;;;24.97;29.18
66627;BME280;53498;50.422;14.912;2022-08-11T16:09:39;99478.22;;;25.02;29.19
66627;BME280;53498;50.422;14.912;2022-08-11T16:12:12;99474.53;;;25.04;29.56
66627;BME280;53498;50.422;14.912;2022-08-11T16:14:41;99481.09;;;24.97;29.13
66627;BME280;53498;50.422;14.912;2022-08-11T16:17:30;99473.69;;;24.86;29.49
66627;BME280;53498;50.422;14.912;2022-08-11T16:19:58;99471.09;;;24.85;29.79
66627;BME280;53498;50.422;14.912;2022-08-11T16:22:31;99470.94;;;24.88;30.09
66627;BME280;53498;50.422;14.912;2022-08-11T16:25:18;99463.00;;;25.04;30.01
66627;BME280;53498;50.422;14.912;2022-08-11T16:27:47;99464.28;;;24.97;29.78
66627;BME280;53498;50.422;14.912;2022-08-11T16:30:14;99465.66;;;25.04;29.95
66627;BME280;53498;50.422;14.912;2022-08-11T16:32:43;99461.38;;;25.01;29.56
66627;BME280;53498;50.422;14.912;2022-08-11T16:35:14;99460.09;;;25.08;29.86
66627;BME280;53498;50.422;14.912;2022-08-11T16:38:01;99454.69;;;25.10;29.40
66627;BME280;53498;50.422;14.912;2022-08-11T16:40:48;99456.06;;;25.01;29.62
66627;BME280;53498;50.422;14.912;2022-08-11T16:43:17;99464.56;;;25.08;30.12
66627;BME280;53498;50.422;14.912;2022-08-11T16:46:06;99455.47;;;25.12;30.50
66627;BME280;53498;50.422;14.912;2022-08-11T16:48:50;99445.84;;;25.27;30.54
66627;BME280;53498;50.422;14.912;2022-08-11T16:51:20;99462.53;;;25.13;30.92